Time;durP1;ratioP1;P1;durP2;ratioP2;P2;SDS_P1;SDS_P2;PMS_P1;PMS_P2;Temp;Humidity;BMP_temperature;BMP_pressure;BME280_temperature;BME280_humidity;BME280_pressure;Samples;Min_cycle;Max_cycle;Signal;HPM_P1;HPM_P2
2022/01/10 00:02:24;;;;;;;14.45;2.75;;;;;;;2.14;100.00;100959.84;4906381;29;20047;-78
2022/01/10 00:04:50;;;;;;;9.05;2.42;;;;;;;2.10;100.00;100959.19;4919946;29;20044;-78
2022/01/10 00:07:16;;;;;;;10.98;3.65;;;;;;;2.05;100.00;100956.88;4915530;29;20040;-78
2022/01/10 00:09:41;;;;;;;11.38;1.88;;;;;;;2.04;100.00;100963.00;4922491;29;20447;-78
2022/01/10 00:12:07;;;;;;;7.93;2.50;;;;;;;2.03;100.00;100963.09;4913417;29;20036;-78
2022/01/10 00:14:32;;;;;;;13.73;2.63;;;;;;;2.09;100.00;100959.28;4929533;29;20067;-78
2022/01/10 00:16:58;;;;;;;12.07;3.03;;;;;;;2.21;100.00;100976.78;4930475;29;20027;-78
2022/01/10 00:19:24;;;;;;;6.53;2.00;;;;;;;2.25;100.00;100976.50;4927941;29;20032;-79
2022/01/10 00:21:49;;;;;;;21.92;2.70;;;;;;;2.15;100.00;100956.31;4919717;29;20037;-78
2022/01/10 00:24:15;;;;;;;6.05;2.00;;;;;;;2.34;100.00;100995.94;4918648;29;20059;-78
2022/01/10 00:26:40;;;;;;;9.05;2.58;;;;;;;2.25;100.00;100983.47;4929051;29;20034;-78
2022/01/10 00:29:05;;;;;;;12.75;3.50;;;;;;;2.26;100.00;100990.34;4917682;29;20079;-78
2022/01/10 00:31:31;;;;;;;5.28;2.03;;;;;;;2.22;100.00;100994.06;4923685;29;20035;-79
2022/01/10 00:33:56;;;;;;;7.70;2.88;;;;;;;2.08;100.00;100981.88;4937117;29;20055;-78
2022/01/10 00:36:21;;;;;;;10.27;2.65;;;;;;;2.13;100.00;101007.63;4922824;29;20031;-78
2022/01/10 00:38:47;;;;;;;10.52;2.20;;;;;;;1.92;100.00;100978.53;4931508;29;20118;-78
2022/01/10 00:41:12;;;;;;;9.60;3.17;;;;;;;2.06;100.00;101018.41;4919115;29;20122;-78
2022/01/10 00:43:45;;;;;;;5.25;2.30;;;;;;;2.03;100.00;101025.59;4919366;29;20170;-78
2022/01/10 00:46:11;;;;;;;13.75;3.30;;;;;;;1.98;100.00;101032.81;4918249;29;20046;-78
2022/01/10 00:48:36;;;;;;;6.15;2.42;;;;;;;1.78;100.00;101000.16;4918131;29;20032;-78
2022/01/10 00:51:02;;;;;;;10.60;3.30;;;;;;;1.88;100.00;101032.53;4919656;29;20107;-78
2022/01/10 00:53:27;;;;;;;10.73;3.13;;;;;;;1.72;100.00;101021.31;4896317;29;20064;-78
2022/01/10 00:55:53;;;;;;;16.65;3.08;;;;;;;1.77;100.00;101034.91;4921056;29;20020;-78
2022/01/10 00:58:18;;;;;;;8.73;4.25;;;;;;;1.58;100.00;101024.72;4932865;29;20481;-78
2022/01/10 01:00:45;;;;;;;5.63;2.15;;;;;;;1.70;100.00;101051.78;4917478;29;20111;-78
2022/01/10 01:03:11;;;;;;;11.98;2.47;;;;;;;1.61;100.00;101046.22;4920651;29;20051;-78
2022/01/10 01:05:42;;;;;;;6.97;2.28;;;;;;;1.46;100.00;101035.81;4918615;29;20439;-78
2022/01/10 01:08:09;;;;;;;17.20;3.17;;;;;;;1.54;100.00;101060.47;4921375;29;20041;-78
2022/01/10 01:13:18;;;;;;;14.30;3.15;;;;;;;1.41;100.00;101064.69;4936855;29;20086;-78
2022/01/10 01:24:05;;;;;;;15.82;3.22;;;;;;;1.19;100.00;101065.03;4936385;29;20047;-79
2022/01/10 01:26:34;;;;;;;8.77;2.58;;;;;;;1.19;100.00;101078.88;4935879;29;20024;-78
2022/01/10 01:29:00;;;;;;;8.20;2.70;;;;;;;1.10;100.00;101086.34;4934214;29;20032;-78
2022/01/10 01:31:26;;;;;;;12.32;2.92;;;;;;;1.19;100.00;101097.06;4920900;29;20042;-78
2022/01/10 01:33:52;;;;;;;9.45;2.35;;;;;;;1.16;100.00;101102.44;4916514;29;20031;-78
2022/01/10 01:36:22;;;;;;;7.63;2.42;;;;;;;1.03;100.00;101089.28;4919273;29;20028;-78
2022/01/10 01:38:48;;;;;;;5.15;2.45;;;;;;;1.13;100.00;101122.56;4916650;29;20527;-78
2022/01/10 01:43:45;;;;;;;;;;;;;;;1.10;100.00;101127.94;4900643;29;20044;-78
2022/01/10 01:46:10;;;;;;;18.02;2.95;;;;;;;1.07;100.00;101134.16;4937817;28;19986;-78
2022/01/10 01:48:36;;;;;;;7.05;2.60;;;;;;;0.96;100.00;101131.28;4922347;29;20071;-78
2022/01/10 01:51:03;;;;;;;8.70;3.00;;;;;;;0.76;100.00;101104.59;4925586;29;20047;-78
2022/01/10 01:53:30;;;;;;;8.93;3.50;;;;;;;0.93;100.00;101145.25;4919582;29;20526;-78
2022/01/10 01:55:57;;;;;;;10.93;3.60;;;;;;;0.95;100.00;101160.78;4942952;29;20492;-78
2022/01/10 01:58:23;;;;;;;11.55;2.55;;;;;;;0.95;100.00;101163.38;4921467;29;20038;-78
2022/01/10 02:00:49;;;;;;;8.88;2.88;;;;;;;0.96;100.00;101167.66;4934236;29;20770;-76
2022/01/10 02:03:14;;;;;;;9.93;3.85;;;;;;;0.85;100.00;101156.97;4924587;29;20047;-75
2022/01/10 02:05:40;;;;;;;5.78;2.47;;;;;;;0.93;100.00;101175.59;4931513;29;20051;-75
2022/01/10 02:08:05;;;;;;;15.93;2.80;;;;;;;0.89;100.00;101169.72;4932496;29;20154;-75
2022/01/10 02:10:30;;;;;;;18.35;3.35;;;;;;;0.71;100.00;101153.31;4928149;29;20059;-75
2022/01/10 02:12:56;;;;;;;9.02;2.80;;;;;;;0.80;100.00;101180.59;4927693;29;20049;-75
2022/01/10 02:15:34;;;;;;;6.63;2.08;;;;;;;0.81;100.00;101184.88;4929193;29;20056;-75
2022/01/10 02:18:00;;;;;;;10.93;2.95;;;;;;;0.81;100.00;101193.50;4912039;29;20440;-75
2022/01/10 02:20:30;;;;;;;12.27;3.00;;;;;;;0.79;100.00;101192.75;4926748;29;20050;-75
2022/01/10 02:22:56;;;;;;;8.52;3.25;;;;;;;0.74;100.00;101205.16;4913521;29;20036;-75
2022/01/10 02:25:22;;;;;;;14.55;3.15;;;;;;;0.71;100.00;101200.09;4911595;29;20523;-75
2022/01/10 02:27:48;;;;;;;14.40;2.28;;;;;;;0.70;100.00;101203.63;4929847;29;20032;-75
2022/01/10 02:30:14;;;;;;;8.98;2.42;;;;;;;0.71;100.00;101210.47;4913660;29;20038;-75
2022/01/10 02:32:39;;;;;;;10.02;2.30;;;;;;;0.71;100.00;101218.28;4930228;29;20094;-75
2022/01/10 02:35:05;;;;;;;12.15;3.22;;;;;;;0.65;100.00;101212.53;4912089;29;20539;-75
2022/01/10 02:37:34;;;;;;;8.50;1.70;;;;;;;0.68;100.00;101223.63;4928110;29;20046;-76
2022/01/10 02:40:03;;;;;;;9.93;2.50;;;;;;;0.69;100.00;101229.66;4912826;29;20036;-75
2022/01/10 02:42:29;;;;;;;7.18;2.25;;;;;;;0.49;100.00;101202.94;4931228;29;20035;-75
2022/01/10 02:44:54;;;;;;;13.27;2.50;;;;;;;0.64;100.00;101232.50;4910257;29;20024;-75
2022/01/10 02:47:20;;;;;;;7.72;2.30;;;;;;;0.53;100.00;101227.00;4923636;29;20060;-75
2022/01/10 02:49:45;;;;;;;9.57;2.72;;;;;;;0.41;100.00;101223.22;4885191;29;20035;-75
2022/01/10 02:52:11;;;;;;;10.32;2.85;;;;;;;0.39;100.00;101225.94;4929120;29;20515;-75
2022/01/10 02:54:36;;;;;;;9.25;3.25;;;;;;;0.47;100.00;101240.28;4924012;29;20391;-75
2022/01/10 02:57:01;;;;;;;9.20;3.15;;;;;;;0.46;100.00;101251.56;4925299;29;20020;-75
2022/01/10 02:59:27;;;;;;;9.90;2.55;;;;;;;0.31;100.00;101233.25;4927023;29;20130;-75
2022/01/10 03:01:54;;;;;;;15.43;2.58;;;;;;;0.41;100.00;101257.00;4928658;29;20036;-75
2022/01/10 03:04:20;;;;;;;3.10;1.73;;;;;;;0.25;100.00;101232.69;4905539;29;20404;-75
2022/01/10 03:06:46;;;;;;;6.10;2.85;;;;;;;0.40;100.00;101258.75;4908894;29;20393;-75
2022/01/10 03:09:12;;;;;;;6.22;2.75;;;;;;;0.39;100.00;101267.47;4911781;29;20119;-75
2022/01/10 03:11:39;;;;;;;9.25;3.35;;;;;;;0.40;100.00;101279.53;4928451;29;20036;-75
2022/01/10 03:14:05;;;;;;;11.13;3.28;;;;;;;0.44;100.00;101274.19;4907479;29;20051;-75
2022/01/10 03:16:30;;;;;;;3.25;2.53;;;;;;;0.39;100.00;101283.06;4925784;29;20431;-75
2022/01/10 03:18:56;;;;;;;4.03;2.00;;;;;;;0.44;100.00;101305.38;4923784;29;20396;-75
2022/01/10 03:21:21;;;;;;;5.88;2.00;;;;;;;0.43;100.00;101298.47;4928198;29;20046;-75
2022/01/10 03:23:48;;;;;;;4.70;2.28;;;;;;;0.36;100.00;101290.97;4927893;29;20091;-75
2022/01/10 03:26:13;;;;;;;8.35;2.83;;;;;;;0.30;100.00;101287.81;4910442;29;20036;-75
2022/01/10 03:28:39;;;;;;;6.88;2.20;;;;;;;0.44;100.00;101308.78;4928890;29;20058;-75
2022/01/10 03:31:04;;;;;;;6.43;2.70;;;;;;;0.33;100.00;101292.88;4926395;29;20373;-75
2022/01/10 03:33:29;;;;;;;10.85;2.72;;;;;;;0.21;100.00;101286.50;4914216;29;20062;-75
2022/01/10 03:35:55;;;;;;;6.32;2.22;;;;;;;0.36;100.00;101318.69;4914136;29;20044;-75
2022/01/10 03:38:21;;;;;;;6.25;1.88;;;;;;;0.36;100.00;101319.53;4910251;29;20046;-75
2022/01/10 03:40:46;;;;;;;7.28;2.80;;;;;;;0.36;100.00;101319.53;4923881;29;20119;-75
2022/01/10 03:43:12;;;;;;;4.90;2.20;;;;;;;0.21;100.00;101309.88;4926559;29;20609;-75
2022/01/10 03:45:38;;;;;;;15.05;4.15;;;;;;;0.19;100.00;101314.28;4909390;29;20402;-75
2022/01/10 03:48:03;;;;;;;5.53;2.22;;;;;;;0.34;100.00;101349.09;4924867;29;20107;-75
2022/01/10 03:50:29;;;;;;;5.88;2.75;;;;;;;0.28;100.00;101337.22;4912635;29;20039;-75
2022/01/10 03:52:54;;;;;;;13.75;3.20;;;;;;;0.33;100.00;101350.84;4880210;29;20023;-75
2022/01/10 03:55:19;;;;;;;12.35;2.50;;;;;;;0.29;100.00;101351.91;4910211;29;20119;-75
2022/01/10 03:57:45;;;;;;;11.10;2.47;;;;;;;0.35;100.00;101366.38;4917533;29;20083;-75
2022/01/10 04:00:11;;;;;;;21.77;3.20;;;;;;;0.33;100.00;101363.84;4925389;29;20103;-75
2022/01/10 04:02:38;;;;;;;7.05;2.92;;;;;;;0.35;100.00;101374.16;4913028;29;20044;-76
2022/01/10 04:05:04;;;;;;;8.57;2.88;;;;;;;0.34;100.00;101375.06;4906146;29;20039;-75
2022/01/10 04:07:30;;;;;;;6.32;2.60;;;;;;;0.19;100.00;101363.63;4929333;29;20095;-75
2022/01/10 04:09:55;;;;;;;12.30;3.20;;;;;;;0.25;100.00;101378.91;4903694;29;20569;-75
2022/01/10 04:12:21;;;;;;;22.13;4.45;;;;;;;0.20;100.00;101376.53;4906614;29;20433;-75
2022/01/10 04:14:47;;;;;;;3.17;2.33;;;;;;;0.32;100.00;101403.66;4903600;29;20039;-75
2022/01/10 04:17:13;;;;;;;13.43;3.40;;;;;;;0.35;100.00;101410.50;4907012;29;20488;-75
2022/01/10 04:19:39;;;;;;;7.82;3.55;;;;;;;0.20;100.00;101391.28;4909553;29;20575;-75
2022/01/10 04:22:04;;;;;;;14.25;3.90;;;;;;;0.27;100.00;101397.03;4904593;29;20083;-75
2022/01/10 04:24:30;;;;;;;12.88;4.85;;;;;;;0.38;100.00;101415.53;4904978;29;20044;-75
2022/01/10 04:26:55;;;;;;;7.95;3.33;;;;;;;0.28;100.00;101402.13;4910227;29;20400;-75
2022/01/10 04:29:20;;;;;;;9.02;3.33;;;;;;;0.33;100.00;101420.94;4894555;29;20068;-75
2022/01/10 04:31:46;;;;;;;16.05;4.00;;;;;;;0.36;100.00;101433.78;4904265;29;20024;-75
2022/01/10 04:34:12;;;;;;;4.65;2.97;;;;;;;0.33;100.00;101433.94;4911298;29;20036;-75
2022/01/10 04:36:37;;;;;;;10.90;3.33;;;;;;;0.35;100.00;101436.47;4907078;29;20036;-75
2022/01/10 04:39:04;;;;;;;31.40;4.45;;;;;;;0.28;100.00;101435.03;4910544;29;20036;-75
2022/01/10 04:41:30;;;;;;;10.07;3.30;;;;;;;0.31;100.00;101438.34;4908049;29;20124;-75
2022/01/10 04:43:55;;;;;;;10.35;4.35;;;;;;;0.24;100.00;101431.75;4890449;29;20128;-75
2022/01/10 04:46:21;;;;;;;10.90;4.68;;;;;;;0.33;100.00;101449.50;4907050;29;20040;-75
2022/01/10 04:48:46;;;;;;;12.90;3.25;;;;;;;0.33;100.00;101453.88;4908001;29;20118;-75
2022/01/10 04:51:15;;;;;;;10.35;4.25;;;;;;;0.33;100.00;101462.50;4905637;29;20037;-75
2022/01/10 04:53:46;;;;;;;7.05;3.70;;;;;;;0.29;100.00;101462.72;4892927;29;20139;-75
2022/01/10 04:56:14;;;;;;;10.35;4.00;;;;;;;0.35;100.00;101478.84;4909266;29;20024;-74
2022/01/10 04:58:40;;;;;;;9.88;3.03;;;;;;;0.34;100.00;101482.34;4907356;29;20036;-75
2022/01/10 05:01:06;;;;;;;19.33;4.65;;;;;;;0.33;100.00;101480.66;4908199;29;20959;-75
2022/01/10 05:03:32;;;;;;;19.92;3.70;;;;;;;0.34;100.00;101489.28;4904979;29;20118;-75
2022/01/10 05:05:57;;;;;;;15.40;4.00;;;;;;;0.31;100.00;101497.25;4907246;29;20140;-75
2022/01/10 05:08:23;;;;;;;10.93;3.38;;;;;;;0.13;100.00;101471.19;4903112;29;20039;-75
2022/01/10 05:10:49;;;;;;;6.53;2.90;;;;;;;0.29;100.00;101505.09;4895141;29;20072;-75
2022/01/10 05:13:15;;;;;;;12.30;3.80;;;;;;;0.29;100.00;101507.69;4910160;29;20062;-75
2022/01/10 05:15:42;;;;;;;8.73;3.13;;;;;;;0.19;100.00;101503.78;4911489;29;20567;-75
2022/01/10 05:18:09;;;;;;;15.82;3.97;;;;;;;0.27;100.00;101512.09;4907092;29;20032;-75
2022/01/10 05:20:35;;;;;;;10.75;3.75;;;;;;;0.26;100.00;101520.81;4913563;29;20059;-75
2022/01/10 05:23:01;;;;;;;16.63;3.53;;;;;;;0.25;100.00;101529.50;4910566;29;20435;-75
2022/01/10 05:25:26;;;;;;;18.27;4.93;;;;;;;0.25;100.00;101529.50;4908331;29;20118;-76
2022/01/10 05:27:51;;;;;;;9.88;4.15;;;;;;;0.23;100.00;101526.13;4909722;29;20386;-75
2022/01/10 05:30:17;;;;;;;6.93;3.85;;;;;;;-0.14;100.00;101475.78;4912608;29;20103;-75
2022/01/10 05:32:42;;;;;;;6.97;3.83;;;;;;;0.23;100.00;101544.28;4907742;29;20048;-75
2022/01/10 05:35:08;;;;;;;6.28;3.10;;;;;;;0.17;100.00;101536.75;4907121;29;20059;-75
2022/01/10 05:37:34;;;;;;;13.07;4.60;;;;;;;0.22;100.00;101552.13;4913475;29;20096;-74
2022/01/10 05:39:59;;;;;;;15.10;5.05;;;;;;;0.06;100.00;101538.97;4912897;29;20119;-75
2022/01/10 05:42:24;;;;;;;20.23;4.40;;;;;;;0.07;100.00;101546.72;4908959;29;20658;-76
2022/01/10 05:44:50;;;;;;;10.27;4.43;;;;;;;0.13;100.00;101564.63;4907549;29;20075;-74
2022/01/10 05:47:15;;;;;;;10.63;4.65;;;;;;;0.15;100.00;101569.72;4908401;29;20116;-75
2022/01/10 05:49:47;;;;;;;18.35;4.78;;;;;;;0.02;100.00;101563.38;4908437;29;20047;-75
2022/01/10 05:52:13;;;;;;;10.98;3.58;;;;;;;0.12;100.00;101583.69;4908203;29;20033;-75
2022/01/10 05:54:38;;;;;;;14.02;4.97;;;;;;;0.11;100.00;101597.59;4907030;29;20752;-75
2022/01/10 05:57:04;;;;;;;14.50;4.80;;;;;;;0.09;100.00;101598.56;4909905;29;20044;-75
2022/01/10 05:59:31;;;;;;;20.67;5.50;;;;;;;0.07;100.00;101602.97;4909242;29;20119;-75
2022/01/10 06:01:57;;;;;;;13.77;4.78;;;;;;;0.03;100.00;101611.78;4908232;29;20028;-75
2022/01/10 06:04:23;;;;;;;16.60;5.82;;;;;;;-0.06;100.00;101608.66;4913654;29;20039;-75
2022/01/10 06:06:48;;;;;;;11.30;4.75;;;;;;;0.02;100.00;101625.66;4908412;29;20036;-75
2022/01/10 06:09:14;;;;;;;30.50;6.50;;;;;;;0.03;100.00;101638.56;4905745;29;20420;-74
2022/01/10 06:11:40;;;;;;;10.63;5.45;;;;;;;0.00;100.00;101646.50;4924584;29;20070;-75
2022/01/10 06:14:07;;;;;;;12.40;5.53;;;;;;;0.03;100.00;101648.97;4926804;29;20144;-75
2022/01/10 06:16:32;;;;;;;11.80;5.32;;;;;;;-0.04;100.00;101656.16;4925764;29;20038;-75
2022/01/10 06:18:58;;;;;;;20.27;6.57;;;;;;;0.01;100.00;101660.31;4924747;29;20110;-75
2022/01/10 06:21:23;;;;;;;20.05;6.57;;;;;;;-0.13;100.00;101648.75;4910999;29;20035;-75
2022/01/10 06:23:48;;;;;;;13.88;5.88;;;;;;;-0.02;100.00;101669.91;4883063;29;20028;-75
2022/01/10 06:26:14;;;;;;;18.35;5.95;;;;;;;-0.03;100.00;101675.16;4927946;29;20031;-74
2022/01/10 06:28:39;;;;;;;17.67;5.93;;;;;;;-0.23;100.00;101650.84;4928623;29;20043;-74
2022/01/10 06:31:05;;;;;;;15.35;5.88;;;;;;;-0.11;100.00;101678.06;4882681;29;20036;-74
2022/01/10 06:33:30;;;;;;;17.50;6.85;;;;;;;-0.14;100.00;101687.72;4909709;29;20547;-73
2022/01/10 06:35:55;;;;;;;19.33;6.63;;;;;;;-0.14;100.00;101691.16;4924644;29;20024;-77
2022/01/10 06:38:21;;;;;;;20.70;7.30;;;;;;;-0.13;100.00;101690.25;4925921;29;20039;-75
2022/01/10 06:40:46;;;;;;;18.92;8.02;;;;;;;-0.17;100.00;101680.91;4924732;29;20032;-75
2022/01/10 06:43:12;;;;;;;13.90;6.28;;;;;;;-0.15;100.00;101697.25;4911631;29;20047;-76
2022/01/10 06:45:37;;;;;;;13.32;7.90;;;;;;;-0.30;100.00;101684.88;4927872;29;20448;-76
2022/01/10 06:48:04;;;;;;;20.95;7.25;;;;;;;-0.29;100.00;101699.53;4912929;29;20035;-76
2022/01/10 06:50:29;;;;;;;25.75;7.90;;;;;;;-0.15;100.00;101733.59;4911343;29;20403;-75
2022/01/10 06:52:57;;;;;;;16.40;6.70;;;;;;;-0.16;100.00;101726.69;4898210;29;20032;-75
2022/01/10 06:55:22;;;;;;;23.08;6.22;;;;;;;-0.15;100.00;101738.78;4900108;29;20035;-75
2022/01/10 06:57:48;;;;;;;15.52;7.43;;;;;;;-0.20;100.00;101738.09;4915705;29;20049;-77
2022/01/10 07:00:13;;;;;;;22.90;8.05;;;;;;;-0.30;100.00;101744.53;4910062;29;20071;-75
2022/01/10 07:02:39;;;;;;;12.23;7.07;;;;;;;-0.36;100.00;101742.19;4930007;29;20028;-76
2022/01/10 07:05:05;;;;;;;18.08;6.55;;;;;;;-0.33;100.00;101761.03;4922115;29;20032;-76
2022/01/10 07:07:30;;;;;;;20.73;7.60;;;;;;;-0.45;100.00;101745.97;4928831;29;20048;-75
2022/01/10 07:09:56;;;;;;;21.85;6.68;;;;;;;-0.50;100.00;101756.50;4898509;29;20132;-76
2022/01/10 07:12:21;;;;;;;15.90;5.70;;;;;;;-0.40;100.00;101774.31;4890661;29;20067;-75
2022/01/10 07:14:47;;;;;;;22.58;8.27;;;;;;;-0.43;100.00;101780.47;4919453;29;20496;-77
2022/01/10 07:17:12;;;;;;;15.77;8.63;;;;;;;-0.41;100.00;101789.03;4910418;29;20031;-76
2022/01/10 07:19:37;;;;;;;20.05;7.07;;;;;;;-0.43;100.00;101791.69;4923787;29;20473;-75
2022/01/10 07:22:04;;;;;;;14.07;8.00;;;;;;;-0.35;100.00;101798.31;4908937;29;20468;-76
2022/01/10 07:24:29;;;;;;;15.98;8.48;;;;;;;-0.84;100.00;101729.19;4928643;29;20032;-76
2022/01/10 07:26:55;;;;;;;14.65;8.50;;;;;;;-0.29;100.00;101816.25;4890647;29;20054;-77
2022/01/10 07:29:20;;;;;;;13.95;7.18;;;;;;;-0.45;100.00;101788.28;4922527;29;20031;-76
2022/01/10 07:31:46;;;;;;;12.68;6.45;;;;;;;-0.31;100.00;101823.25;4909395;29;20455;-76
2022/01/10 07:34:14;;;;;;;15.00;6.75;;;;;;;-0.27;100.00;101835.22;4926512;29;20456;-76
2022/01/10 07:36:40;;;;;;;10.88;6.13;;;;;;;-0.27;100.00;101848.19;4910431;29;20460;-76
2022/01/10 07:39:05;;;;;;;24.45;7.13;;;;;;;-0.35;100.00;101866.59;4923977;29;20032;-76
2022/01/10 07:41:31;;;;;;;20.92;8.30;;;;;;;-0.40;100.00;101847.78;4905429;29;20488;-76
2022/01/10 07:43:58;;;;;;;16.63;7.78;;;;;;;-0.46;100.00;101846.25;4924635;29;20095;-76
2022/01/10 07:46:23;;;;;;;17.33;7.15;;;;;;;-0.46;100.00;101854.03;4904331;29;20567;-76
2022/01/10 07:48:49;;;;;;;16.02;8.02;;;;;;;-0.44;100.00;101854.81;4912089;29;20024;-76
2022/01/10 07:51:15;;;;;;;20.40;8.05;;;;;;;-0.53;100.00;101849.13;4922602;29;20035;-76
2022/01/10 07:53:41;;;;;;;21.77;7.90;;;;;;;-0.46;100.00;101864.41;4891472;29;20086;-76
2022/01/10 07:56:07;;;;;;;16.02;7.50;;;;;;;-0.38;100.00;101871.06;4904745;29;20131;-76
2022/01/10 07:58:33;;;;;;;15.77;7.25;;;;;;;-0.28;100.00;101890.59;4928235;29;20042;-76
2022/01/10 08:00:59;;;;;;;18.63;7.13;;;;;;;-0.25;100.00;101887.91;4908902;29;20028;-75
2022/01/10 08:03:26;;;;;;;20.38;8.43;;;;;;;-0.29;100.00;101881.94;4909752;29;20089;-76
2022/01/10 08:05:52;;;;;;;19.23;8.20;;;;;;;-0.17;100.00;101896.25;4904280;29;20047;-76
2022/01/10 08:08:17;;;;;;;16.05;7.80;;;;;;;-0.34;100.00;101870.06;4927938;29;20043;-76
2022/01/10 08:10:43;;;;;;;16.33;8.45;;;;;;;-0.14;100.00;101911.69;4927890;29;20059;-75
2022/01/10 08:13:08;;;;;;;38.15;9.68;;;;;;;-0.17;100.00;101914.41;4926938;29;20043;-75
2022/01/10 08:15:34;;;;;;;22.20;10.05;;;;;;;-0.20;100.00;101911.91;4926519;29;20040;-76
2022/01/10 08:18:00;;;;;;;34.28;11.25;;;;;;;-0.22;100.00;101919.78;4927624;29;20035;-76
2022/01/10 08:20:26;;;;;;;21.98;10.77;;;;;;;-0.36;100.00;101897.81;4906942;29;20654;-76
2022/01/10 08:22:51;;;;;;;20.42;10.88;;;;;;;-0.19;100.00;101924.00;4895519;29;20123;-75
2022/01/10 08:25:17;;;;;;;25.02;10.73;;;;;;;-0.09;100.00;101937.47;4911469;29;20354;-76
2022/01/10 08:27:42;;;;;;;17.00;10.15;;;;;;;-0.05;100.00;101932.13;4928039;29;20053;-76
2022/01/10 08:30:09;;;;;;;36.05;11.00;;;;;;;0.08;100.00;101942.06;4894715;29;20506;-75
2022/01/10 08:32:34;;;;;;;32.30;9.73;;;;;;;0.09;100.00;101938.59;4925815;29;20419;-75
2022/01/10 08:35:00;;;;;;;18.02;10.45;;;;;;;-0.08;100.00;101914.09;4925994;29;20039;-75
2022/01/10 08:37:26;;;;;;;25.80;9.57;;;;;;;0.04;100.00;101933.53;4911407;29;20438;-75
2022/01/10 08:39:51;;;;;;;23.60;12.15;;;;;;;0.08;100.00;101913.53;4914585;29;20058;-75
2022/01/10 08:42:20;;;;;;;23.95;11.02;;;;;;;0.47;100.00;101939.75;4930254;29;20477;-75
2022/01/10 08:44:46;;;;;;;20.77;11.65;;;;;;;0.50;100.00;101943.97;4929040;29;20543;-75
2022/01/10 08:47:13;;;;;;;26.33;10.30;;;;;;;0.45;100.00;101941.56;4930905;29;20029;-75
2022/01/10 08:49:38;;;;;;;19.77;9.73;;;;;;;0.47;100.00;101924.16;4932006;29;20036;-75
2022/01/10 08:52:04;;;;;;;21.70;9.50;;;;;;;0.67;100.00;101954.56;4886484;29;20055;-75
2022/01/10 08:54:30;;;;;;;23.75;10.30;;;;;;;0.80;100.00;101958.38;4932161;29;20035;-75
2022/01/10 08:56:55;;;;;;;18.85;10.13;;;;;;;0.88;100.00;101945.09;4929654;29;20397;-76
2022/01/10 08:59:21;;;;;;;17.77;9.75;;;;;;;0.95;100.00;101941.34;4912705;29;20094;-76
2022/01/10 09:01:47;;;;;;;21.13;11.55;;;;;;;1.40;100.00;101988.97;4915717;29;20123;-77
2022/01/10 09:04:16;;;;;;;32.33;12.73;;;;;;;1.52;100.00;101998.03;4931074;29;20040;-75
2022/01/10 09:06:48;;;;;;;19.08;10.20;;;;;;;1.56;100.00;102008.25;4930630;29;20039;-75
2022/01/10 09:09:15;;;;;;;24.45;12.32;;;;;;;1.58;100.00;102003.81;4920729;29;20400;-76
2022/01/10 09:11:42;;;;;;;20.05;9.75;;;;;;;1.61;100.00;102003.72;4928385;29;20036;-76
2022/01/10 09:14:07;;;;;;;24.98;10.52;;;;;;;1.72;100.00;102011.06;4912383;29;20036;-76
2022/01/10 09:16:33;;;;;;;19.77;9.70;;;;;;;2.21;100.00;102023.75;4921455;29;20102;-76
2022/01/10 09:18:59;;;;;;;25.02;11.57;;;;;;;2.46;100.00;102016.53;4928237;29;20035;-76
2022/01/10 09:21:25;;;;;;;27.20;12.00;;;;;;;2.45;100.00;101996.59;4913575;29;20051;-76
2022/01/10 09:23:50;;;;;;;21.35;11.07;;;;;;;2.84;100.00;102008.72;4910795;29;21452;-76
2022/01/10 09:26:16;;;;;;;20.65;10.50;;;;;;;2.83;100.00;102017.47;4912002;29;20071;-77
2022/01/10 09:28:43;;;;;;;18.73;9.55;;;;;;;2.83;100.00;102009.66;4911291;29;20036;-77
2022/01/10 09:31:10;;;;;;;24.63;11.05;;;;;;;3.07;100.00;102018.06;4901905;29;20127;-78
2022/01/10 09:33:35;;;;;;;21.17;9.98;;;;;;;3.40;99.32;102038.25;4927788;29;20036;-77
2022/01/10 09:36:01;;;;;;;19.13;10.13;;;;;;;3.63;97.39;102041.50;4927824;29;20032;-77
2022/01/10 09:38:27;;;;;;;25.08;10.98;;;;;;;4.26;95.92;102048.75;4923363;29;20058;-77
2022/01/10 09:40:52;;;;;;;20.50;9.68;;;;;;;5.15;93.09;102041.38;4912068;29;20063;-77
2022/01/10 09:43:18;;;;;;;19.80;9.98;;;;;;;6.21;87.53;102055.41;4924033;29;20107;-78
2022/01/10 09:45:45;;;;;;;17.80;9.13;;;;;;;6.84;83.54;102064.66;4911567;29;20046;-78
2022/01/10 09:48:11;;;;;;;15.23;8.82;;;;;;;7.54;81.48;102056.69;4928166;29;20467;-78
2022/01/10 09:50:36;;;;;;;14.07;8.20;;;;;;;8.51;78.00;102066.81;4908468;29;20055;-78
2022/01/10 09:53:03;;;;;;;14.43;9.00;;;;;;;8.90;74.36;102041.25;4911369;29;20444;-78
2022/01/10 09:55:31;;;;;;;14.52;9.48;;;;;;;9.19;72.61;102081.31;4893841;29;20444;-77
2022/01/10 09:57:58;;;;;;;14.25;9.35;;;;;;;9.55;72.72;102089.28;4924795;29;20471;-78
2022/01/10 10:00:24;;;;;;;15.02;8.88;;;;;;;9.79;70.68;102074.28;4911976;29;20029;-78
2022/01/10 10:02:50;;;;;;;12.57;7.97;;;;;;;10.44;68.73;102072.03;4911767;29;20054;-78
2022/01/10 10:05:16;;;;;;;17.20;8.82;;;;;;;11.37;67.76;102100.78;4913064;29;20115;-78
2022/01/10 10:07:42;;;;;;;18.42;8.40;;;;;;;11.98;63.83;102107.31;4912509;29;20453;-77
2022/01/10 10:10:13;;;;;;;15.10;8.40;;;;;;;12.27;62.71;102087.13;4931554;29;20071;-78
2022/01/10 10:12:47;;;;;;;13.20;9.32;;;;;;;12.64;59.68;102118.41;4923097;29;20520;-78
2022/01/10 10:15:15;;;;;;;16.95;9.75;;;;;;;13.11;61.49;102117.88;4914701;29;20028;-78
2022/01/10 10:17:42;;;;;;;21.98;13.05;;;;;;;12.94;59.88;102103.47;4924346;29;20051;-78
2022/01/10 10:20:09;;;;;;;17.30;9.82;;;;;;;13.41;57.36;102122.28;4910469;29;20051;-78
2022/01/10 10:22:38;;;;;;;21.50;8.38;;;;;;;13.90;57.53;102119.66;4928622;29;20036;-78
2022/01/10 10:25:08;;;;;;;14.15;8.65;;;;;;;13.57;57.56;102114.63;4928375;29;20484;-78
2022/01/10 10:27:38;;;;;;;14.50;9.68;;;;;;;13.52;57.59;102124.84;4908559;29;20039;-78
2022/01/10 10:30:11;;;;;;;17.93;8.53;;;;;;;13.14;58.07;102102.53;4923984;29;20063;-78
2022/01/10 10:32:37;;;;;;;15.57;8.20;;;;;;;14.02;57.47;102123.00;4927989;29;20071;-78
2022/01/10 10:35:05;;;;;;;15.80;8.52;;;;;;;14.63;55.54;102135.88;4910767;29;20191;-78
2022/01/10 10:37:35;;;;;;;13.93;7.97;;;;;;;14.49;56.04;102139.00;4925038;29;20043;-78
2022/01/10 10:40:06;;;;;;;15.10;9.10;;;;;;;14.81;54.02;102146.63;4928422;29;20385;-78
2022/01/10 10:42:32;;;;;;;15.35;8.73;;;;;;;14.49;54.06;102131.84;4929500;29;20613;-78
2022/01/10 10:44:58;;;;;;;13.93;8.30;;;;;;;14.06;54.32;102135.84;4913966;29;20040;-79
2022/01/10 10:47:27;;;;;;;14.23;9.05;;;;;;;13.87;54.78;102131.41;4909998;29;20090;-78
2022/01/10 10:50:00;;;;;;;17.20;9.40;;;;;;;13.05;57.08;102142.28;4898042;29;20038;-78
2022/01/10 10:52:38;;;;;;;15.40;8.13;;;;;;;12.92;58.16;102129.25;4923920;29;20151;-78
2022/01/10 10:55:05;;;;;;;13.82;8.70;;;;;;;11.96;60.10;102135.69;4908401;29;20066;-78
2022/01/10 10:57:32;;;;;;;14.43;8.50;;;;;;;12.23;60.61;102157.19;4908809;29;20064;-78
2022/01/10 10:59:59;;;;;;;12.07;7.97;;;;;;;12.71;59.48;102155.78;4911410;29;20126;-78
2022/01/10 11:02:24;;;;;;;17.77;9.40;;;;;;;12.70;58.73;102162.06;4927496;29;20059;-78
2022/01/10 11:04:50;;;;;;;17.17;8.50;;;;;;;12.42;59.25;102168.88;4922234;29;20511;-78
2022/01/10 11:07:16;;;;;;;15.57;8.98;;;;;;;12.37;59.31;102149.88;4908830;29;20039;-78
2022/01/10 11:09:42;;;;;;;14.70;8.93;;;;;;;13.00;59.66;102182.44;4879814;29;20546;-78
2022/01/10 11:12:08;;;;;;;15.38;10.20;;;;;;;12.37;58.63;102177.22;4927463;28;20052;-78
2022/01/10 11:14:33;;;;;;;15.65;9.10;;;;;;;11.31;63.31;102186.66;4887264;29;20053;-78
2022/01/10 11:16:59;;;;;;;13.85;8.38;;;;;;;10.59;63.48;102192.28;4894403;29;20028;-78
2022/01/10 11:19:27;;;;;;;17.75;9.40;;;;;;;10.16;65.83;102177.03;4922764;29;20381;-78
2022/01/10 11:21:52;;;;;;;18.30;9.45;;;;;;;9.60;67.27;102196.06;4907054;29;20024;-78
2022/01/10 11:24:43;;;;;;;18.38;8.82;;;;;;;8.97;69.42;102189.97;4922067;29;20050;-78
2022/01/10 11:27:26;;;;;;;18.63;9.48;;;;;;;8.48;71.86;102205.66;4921432;29;20546;-77